Veterans Hospital, Alabama
Current Conditions -  °F | °C
As of 12:53 PM on Friday 24 Oct 2014 (Local Time) from KTCL Reporting Station
Clear Clear  
Wind Chill: 74°   Ceiling: Unl
Heat Index: 74°   Visibility: 10mi
Dew Point: 40°   Wind: 6mph
Humidity: 29%   Direction: NA
Pressure: 30.07"   Gusts: NA
Location:  33.1664°N, 87.6118°W
Report Text: KTCL 241753Z VRB05KT 10SM CLR 23/04 A3007 RMK AO2 SLP182 T02330044 10233 20094 58018
Loading
Personal Weather Stations






























Interactive Weather Map
Tropical Storm Tracking
New forecast layout! Learn more

10-Day Weather Forecast

Advertisements
Track Severe Weather on mobile